Benavides, Texas
Current Conditions -  °F | °C
As of 11:53 PM on Tuesday 21 Oct 2014 (Local Time) from KALI Reporting Station
Clear Clear  
Wind Chill: 69°   Ceiling: Unl
Heat Index: 69°   Visibility: 10mi
Dew Point: 66°   Wind: 7mph
Humidity: 90%   Direction: 40°NE
Pressure: 30"   Gusts: NA
Location:  27.6°N, 98.41°W
Report Text: KALI 220453Z AUTO 04006KT 10SM CLR 21/19 A3000 RMK AO2 SLP156 T02060189
Loading
Personal Weather Stations






























Interactive Weather Map
Tropical Storm Tracking
New forecast layout! Learn more

10-Day Weather Forecast

Advertisements
Track Severe Weather on mobile